createdAt,value
2018-11-29T00:00:02.459Z,87.31
2018-11-29T00:10:01.330Z,88.61
2018-11-29T00:15:01.300Z,89.64
2018-11-29T00:30:01.324Z,89.72
2018-11-29T00:45:02.068Z,90.14
2018-11-29T01:00:01.406Z,91.79
2018-11-29T01:15:01.327Z,91.95
2018-11-29T01:30:01.326Z,92.09
2018-11-29T01:45:01.418Z,92.54
2018-11-29T01:55:01.313Z,92.25
2018-11-29T02:00:01.264Z,92.25
2018-11-29T02:15:01.345Z,93.80
2018-11-29T02:20:01.349Z,93.80
2018-11-29T02:30:01.354Z,95.29
2018-11-29T02:35:01.411Z,96.93
2018-11-29T02:40:01.366Z,96.93
2018-11-29T02:45:01.326Z,97.35
2018-11-29T03:00:01.340Z,97.53
2018-11-29T03:15:01.394Z,97.95
2018-11-29T03:30:01.377Z,98.36
2018-11-29T03:45:01.360Z,98.38
2018-11-29T04:00:01.356Z,98.63
2018-11-29T04:15:01.393Z,99.15
2018-11-29T04:30:01.299Z,99.36
2018-11-29T04:45:01.379Z,100.00
2018-11-29T04:50:01.371Z,100.00
2018-11-29T04:55:01.707Z,100.00
2018-11-29T05:00:01.407Z,100.00
2018-11-29T05:15:01.434Z,100.00
2018-11-29T05:30:01.344Z,100.00
2018-11-29T05:35:01.426Z,100.00
2018-11-29T05:45:01.448Z,100.00
2018-11-29T06:00:01.545Z,100.00
2018-11-29T06:15:01.381Z,100.00
2018-11-29T06:20:01.395Z,100.00
2018-11-29T06:30:01.499Z,100.00
2018-11-29T06:45:01.503Z,100.00
2018-11-29T07:00:01.580Z,100.00
2018-11-29T07:15:01.516Z,100.00
2018-11-29T07:30:02.803Z,100.00
2018-11-29T07:45:01.505Z,100.00
2018-11-29T07:55:02.160Z,100.00
2018-11-29T08:00:01.537Z,100.00
2018-11-29T08:15:01.601Z,100.00
2018-11-29T08:30:01.524Z,100.00
2018-11-29T08:35:01.569Z,100.00
2018-11-29T08:45:01.517Z,100.00
2018-11-29T08:50:01.762Z,100.00
2018-11-29T09:00:01.595Z,100.00
2018-11-29T09:10:01.530Z,100.00
2018-11-29T09:15:01.606Z,100.00
2018-11-29T09:20:01.582Z,100.00
2018-11-29T09:30:01.537Z,100.00
2018-11-29T09:45:01.824Z,100.00
2018-11-29T09:55:01.698Z,100.00
2018-11-29T10:00:01.565Z,100.00
2018-11-29T10:05:01.583Z,100.00
2018-11-29T10:15:01.565Z,100.00
2018-11-29T10:25:01.537Z,100.00
2018-11-29T10:30:01.540Z,100.00
2018-11-29T10:40:01.591Z,100.00
2018-11-29T10:45:01.521Z,100.00
2018-11-29T10:55:01.571Z,100.00
2018-11-29T11:00:01.551Z,100.00
2018-11-29T11:10:01.530Z,100.00
2018-11-29T11:15:01.663Z,100.00
2018-11-29T11:30:01.747Z,100.00
2018-11-29T11:45:01.832Z,100.00
2018-11-29T12:00:02.052Z,100.00
2018-11-29T12:05:01.580Z,100.00
2018-11-29T12:15:02.175Z,100.00
2018-11-29T12:30:01.639Z,100.00
2018-11-29T12:40:01.580Z,100.00
2018-11-29T12:45:01.591Z,100.00
2018-11-29T12:55:01.582Z,100.00
2018-11-29T13:00:01.591Z,100.00
2018-11-29T13:15:02.185Z,100.00
2018-11-29T13:25:01.582Z,100.00
2018-11-29T13:30:01.595Z,100.00
2018-11-29T13:45:01.597Z,100.00
2018-11-29T14:00:01.684Z,100.00
2018-11-29T14:15:01.671Z,100.00
2018-11-29T14:20:01.608Z,100.00
2018-11-29T14:30:01.620Z,100.00
2018-11-29T14:45:01.732Z,100.00
2018-11-29T15:00:01.609Z,100.00
2018-11-29T15:05:01.602Z,100.00
2018-11-29T15:15:01.646Z,100.00
2018-11-29T15:30:01.620Z,100.00
2018-11-29T15:35:01.686Z,100.00
2018-11-29T15:45:01.711Z,100.00
2018-11-29T16:00:01.695Z,100.00
2018-11-29T16:15:01.702Z,100.00
2018-11-29T16:30:01.622Z,100.00
2018-11-29T16:45:01.673Z,100.00
2018-11-29T17:00:01.583Z,100.00
2018-11-29T17:15:01.683Z,100.00
2018-11-29T17:30:01.819Z,100.00
2018-11-29T17:45:01.582Z,100.00
2018-11-29T18:00:01.642Z,100.00
2018-11-29T18:15:01.732Z,100.00
2018-11-29T18:30:01.593Z,100.00
2018-11-29T18:40:01.671Z,100.00
2018-11-29T18:45:01.528Z,100.00
2018-11-29T19:00:01.657Z,100.00
2018-11-29T19:15:01.666Z,100.00
2018-11-29T19:30:04.699Z,100.00
2018-11-29T19:45:01.590Z,100.00
2018-11-29T20:00:01.598Z,100.00
2018-11-29T20:15:01.631Z,100.00
2018-11-29T20:20:01.531Z,100.00
2018-11-29T20:30:01.611Z,100.00
2018-11-29T20:45:01.606Z,100.00
2018-11-29T20:50:01.643Z,100.00
2018-11-29T21:00:01.578Z,100.00
2018-11-29T21:15:01.622Z,100.00
2018-11-29T21:25:01.589Z,100.00
2018-11-29T21:30:01.527Z,100.00
2018-11-29T21:45:01.598Z,100.00
2018-11-29T22:00:01.559Z,100.00
2018-11-29T22:15:01.618Z,100.00
2018-11-29T22:20:01.519Z,100.00
2018-11-29T22:30:01.632Z,99.47
2018-11-29T22:45:01.622Z,99.36
2018-11-29T23:00:01.680Z,99.12
2018-11-29T23:05:01.580Z,98.47
2018-11-29T23:15:01.708Z,98.36
2018-11-29T23:20:01.574Z,98.36
2018-11-29T23:30:01.655Z,98.25
2018-11-29T23:45:01.588Z,98.04
2018-11-29T23:50:06.558Z,98.04
